createdAt,value
2018-01-11T00:00:32.431Z,0
2018-01-11T00:01:42.223Z,0
2018-01-11T00:02:52.078Z,0
2018-01-11T00:04:02.495Z,0
2018-01-11T00:05:12.555Z,0
2018-01-11T00:06:22.608Z,0
2018-01-11T00:07:32.647Z,0
2018-01-11T00:08:42.427Z,0
2018-01-11T00:09:52.206Z,0
2018-01-11T00:11:01.746Z,0
2018-01-11T00:12:11.553Z,0
2018-01-11T00:13:21.597Z,0
2018-01-11T00:14:31.447Z,0
2018-01-11T00:15:41.488Z,0
2018-01-11T00:16:51.285Z,0
2018-01-11T00:18:01.328Z,0
2018-01-11T00:19:11.390Z,0
2018-01-11T00:20:21.446Z,0
2018-01-11T00:21:31.508Z,0
2018-01-11T00:22:41.563Z,0
2018-01-11T00:23:51.461Z,0
2018-01-11T00:25:01.522Z,0
2018-01-11T00:26:11.616Z,0
2018-01-11T00:27:21.395Z,0
2018-01-11T00:28:31.453Z,0
2018-01-11T00:29:41.514Z,0
2018-01-11T00:30:51.564Z,0
2018-01-11T00:32:01.623Z,0
2018-01-11T00:33:11.695Z,0
2018-01-11T00:34:21.750Z,0
2018-01-11T00:35:31.808Z,0
2018-01-11T00:36:41.913Z,0
2018-01-11T00:37:51.967Z,0
2018-01-11T00:39:02.078Z,0
2018-01-11T00:40:11.613Z,0
2018-01-11T00:41:21.412Z,0
2018-01-11T00:42:31.197Z,0
2018-01-11T00:43:41.245Z,0
2018-01-11T00:44:51.293Z,0
2018-01-11T00:46:01.334Z,0
2018-01-11T00:47:11.378Z,0
2018-01-11T00:48:21.442Z,0
2018-01-11T00:49:31.508Z,0
2018-01-11T00:50:41.572Z,0
2018-01-11T00:51:51.618Z,0
2018-01-11T00:53:01.670Z,0
2018-01-11T00:54:11.726Z,0
2018-01-11T00:55:21.832Z,0
2018-01-11T00:56:31.619Z,0
2018-01-11T00:57:41.718Z,0
2018-01-11T00:58:51.532Z,0
2018-01-11T01:00:01.588Z,0
2018-01-11T01:01:11.432Z,0
2018-01-11T01:02:21.484Z,0
2018-01-11T01:03:31.030Z,0
2018-01-11T01:04:41.083Z,0
2018-01-11T01:05:51.127Z,0
2018-01-11T01:07:01.025Z,0
2018-01-11T01:08:11.074Z,0
2018-01-11T01:09:21.124Z,0
2018-01-11T01:10:31.191Z,0
2018-01-11T01:11:41.257Z,0
2018-01-11T01:12:51.038Z,0
2018-01-11T01:14:01.096Z,0
2018-01-11T01:15:11.157Z,0
2018-01-11T01:16:21.195Z,0
2018-01-11T01:17:31.300Z,0
2018-01-11T01:18:41.407Z,0
2018-01-11T01:19:51.194Z,0
2018-01-11T01:21:00.716Z,0
2018-01-11T01:22:10.793Z,0
2018-01-11T01:23:20.573Z,0
2018-01-11T01:24:30.680Z,0
2018-01-11T01:25:40.730Z,0
2018-01-11T01:26:50.783Z,0
2018-01-11T01:28:00.831Z,0
2018-01-11T01:29:10.892Z,0
2018-01-11T01:30:20.950Z,0
2018-01-11T01:31:30.494Z,0
2018-01-11T01:32:40.293Z,0
2018-01-11T01:33:50.077Z,0
2018-01-11T01:35:00.124Z,0
2018-01-11T01:36:10.191Z,0
2018-01-11T01:37:20.244Z,0
2018-01-11T01:38:30.022Z,0
2018-01-11T01:39:40.081Z,0
2018-01-11T01:40:50.146Z,0
2018-01-11T01:42:00.203Z,0
2018-01-11T01:43:10.303Z,0
2018-01-11T01:44:20.095Z,0
2018-01-11T01:45:30.139Z,0
2018-01-11T01:46:39.941Z,0
2018-01-11T01:47:50.281Z,0
2018-01-11T01:49:00.070Z,0
2018-01-11T01:50:09.872Z,0
2018-01-11T01:51:19.912Z,0
2018-01-11T01:52:29.955Z,0
2018-01-11T01:53:39.485Z,0
2018-01-11T01:54:49.535Z,0
2018-01-11T01:55:59.653Z,0
2018-01-11T01:57:09.746Z,0
2018-01-11T01:58:19.273Z,0
2018-01-11T01:59:29.382Z,0
2018-01-11T02:00:39.175Z,0
2018-01-11T02:01:49.299Z,0
2018-01-11T02:02:59.353Z,0
2018-01-11T02:04:09.410Z,0
2018-01-11T02:05:19.514Z,0
2018-01-11T02:06:29.547Z,0
2018-01-11T02:07:39.613Z,0
2018-01-11T02:08:49.668Z,0
2018-01-11T02:09:59.452Z,0
2018-01-11T02:11:09.257Z,0
2018-01-11T02:12:19.052Z,0
2018-01-11T02:13:29.109Z,0
2018-01-11T02:14:39.146Z,0
2018-01-11T02:15:48.682Z,0
2018-01-11T02:16:58.750Z,0
2018-01-11T02:18:08.552Z,0
2018-01-11T02:19:18.597Z,0
2018-01-11T02:20:28.641Z,0
2018-01-11T02:21:38.442Z,0
2018-01-11T02:22:48.528Z,0
2018-01-11T02:23:58.595Z,0
2018-01-11T02:25:08.638Z,0
2018-01-11T02:26:18.683Z,0
2018-01-11T02:27:28.752Z,0
2018-01-11T02:28:38.544Z,0
2018-01-11T02:29:48.326Z,0
2018-01-11T02:30:58.447Z,0
2018-01-11T02:32:08.508Z,0
2018-01-11T02:33:18.587Z,0
2018-01-11T02:34:28.381Z,0
2018-01-11T02:35:38.323Z,0
2018-01-11T02:36:48.387Z,0
2018-01-11T02:37:58.450Z,0
2018-01-11T02:39:08.550Z,0
2018-01-11T02:40:18.630Z,0
2018-01-11T02:41:28.432Z,0
2018-01-11T02:42:38.483Z,0
2018-01-11T02:43:48.291Z,0
2018-01-11T02:44:57.822Z,0
2018-01-11T02:46:07.638Z,0
2018-01-11T02:47:17.491Z,0
2018-01-11T02:48:27.553Z,0
2018-01-11T02:49:37.606Z,0
2018-01-11T02:50:47.670Z,0
2018-01-11T02:51:57.504Z,0
2018-01-11T02:53:07.300Z,0
2018-01-11T02:54:17.371Z,0
2018-01-11T02:55:27.434Z,0
2018-01-11T02:56:37.495Z,0
2018-01-11T02:57:47.593Z,0
2018-01-11T02:58:57.659Z,0
2018-01-11T03:00:07.738Z,0
2018-01-11T03:01:17.805Z,0
2018-01-11T03:02:28.908Z,0
2018-01-11T03:34:18.295Z,0
2018-01-11T03:35:28.343Z,0
2018-01-11T03:36:38.395Z,0
2018-01-11T03:37:48.447Z,0
2018-01-11T03:38:58.224Z,0
2018-01-11T03:40:08.310Z,0
2018-01-11T03:41:18.088Z,0
2018-01-11T03:42:28.137Z,0
2018-01-11T03:43:38.182Z,0
2018-01-11T03:44:48.224Z,0
2018-01-11T03:45:58.270Z,0
2018-01-11T03:47:08.327Z,0
2018-01-11T03:48:18.388Z,0
2018-01-11T03:49:28.432Z,0
2018-01-11T03:50:38.482Z,0
2018-01-11T03:51:47.744Z,0
2018-01-11T03:52:57.778Z,0
2018-01-11T03:54:07.570Z,0
2018-01-11T03:55:17.614Z,0
2018-01-11T03:56:27.164Z,0
2018-01-11T03:57:36.211Z,0
2018-01-11T03:58:46.003Z,0
2018-01-11T03:59:55.799Z,0
2018-01-11T04:01:05.848Z,0
2018-01-11T04:02:15.953Z,0
2018-01-11T04:03:26.051Z,0
2018-01-11T04:04:36.704Z,0
2018-01-11T04:05:46.524Z,0
2018-01-11T04:06:57.274Z,0
2018-01-11T04:08:07.349Z,0
2018-01-11T04:09:16.984Z,0
2018-01-11T04:10:27.037Z,0
2018-01-11T04:11:37.082Z,0
2018-01-11T04:12:47.122Z,0
2018-01-11T04:13:56.908Z,0
2018-01-11T04:15:06.753Z,0
2018-01-11T04:16:16.549Z,0
2018-01-11T04:17:26.603Z,0
2018-01-11T04:18:36.663Z,0
2018-01-11T04:19:46.502Z,0
2018-01-11T04:20:56.601Z,0
2018-01-11T04:22:06.649Z,0
2018-01-11T04:23:16.709Z,0
2018-01-11T04:24:26.751Z,0
2018-01-11T04:25:36.799Z,0
2018-01-11T04:26:46.842Z,0
2018-01-11T04:27:56.902Z,0
2018-01-11T04:29:06.952Z,0
2018-01-11T04:30:16.997Z,0
2018-01-11T04:31:27.038Z,0
2018-01-11T04:32:37.319Z,0
2018-01-11T04:33:47.377Z,0
2018-01-11T04:34:57.442Z,0
2018-01-11T04:36:07.515Z,0
2018-01-11T04:37:17.566Z,0
2018-01-11T04:38:27.109Z,0
2018-01-11T04:39:37.156Z,0
2018-01-11T04:40:47.211Z,0
2018-01-11T04:41:56.736Z,0
2018-01-11T04:43:06.784Z,0
2018-01-11T04:44:16.312Z,0
2018-01-11T04:45:26.102Z,0
2018-01-11T04:46:36.160Z,0
2018-01-11T04:47:46.218Z,0
2018-01-11T04:48:56.279Z,0
2018-01-11T04:50:06.396Z,0
2018-01-11T04:51:16.471Z,0
2018-01-11T04:52:26.534Z,0
2018-01-11T04:53:36.328Z,0
2018-01-11T04:54:46.123Z,0
2018-01-11T04:55:55.957Z,0
2018-01-11T04:57:05.766Z,0
2018-01-11T04:58:15.837Z,0
2018-01-11T04:59:25.906Z,0
2018-01-11T05:00:35.967Z,0
2018-01-11T05:01:46.032Z,0
2018-01-11T05:02:56.108Z,0
2018-01-11T05:04:06.174Z,0
2018-01-11T05:05:16.238Z,0
2018-01-11T05:06:26.022Z,0
2018-01-11T05:07:36.117Z,0
2018-01-11T05:08:45.637Z,0
2018-01-11T05:09:55.414Z,0
2018-01-11T05:11:05.566Z,0
2018-01-11T05:12:15.624Z,0
2018-01-11T05:13:25.740Z,0
2018-01-11T05:14:35.834Z,0
2018-01-11T05:15:45.881Z,0
2018-01-11T05:16:55.968Z,0
2018-01-11T05:18:05.790Z,0
2018-01-11T05:19:15.635Z,0
2018-01-11T05:20:25.681Z,0
2018-01-11T05:21:35.474Z,0
2018-01-11T05:22:45.529Z,0
2018-01-11T05:23:55.572Z,0
2018-01-11T05:25:05.366Z,0
2018-01-11T05:26:15.425Z,0
2018-01-11T05:27:25.228Z,0
2018-01-11T05:28:35.291Z,0
2018-01-11T05:29:45.348Z,0
2018-01-11T05:30:55.398Z,0
2018-01-11T05:32:05.468Z,0
2018-01-11T05:33:15.551Z,0
2018-01-11T05:34:25.346Z,0
2018-01-11T05:35:35.409Z,0
2018-01-11T05:36:45.467Z,0
2018-01-11T05:37:55.532Z,0
2018-01-11T05:39:05.587Z,0
2018-01-11T05:40:15.631Z,0
2018-01-11T05:41:25.698Z,0
2018-01-11T05:42:35.751Z,0
2018-01-11T05:43:45.541Z,0
2018-01-11T05:44:55.331Z,0
2018-01-11T05:46:05.114Z,0
2018-01-11T05:47:15.181Z,0
2018-01-11T05:48:25.238Z,0
2018-01-11T05:49:35.080Z,0
2018-01-11T05:50:44.940Z,0
2018-01-11T05:51:54.735Z,0
2018-01-11T05:53:04.797Z,0
2018-01-11T05:54:14.594Z,0
2018-01-11T05:55:24.646Z,0
2018-01-11T05:56:34.700Z,0
2018-01-11T05:57:44.772Z,0
2018-01-11T05:58:54.572Z,0
2018-01-11T06:00:04.360Z,0
2018-01-11T06:01:14.433Z,0
2018-01-11T06:02:24.479Z,0
2018-01-11T06:03:34.588Z,0
2018-01-11T06:04:44.378Z,0
2018-01-11T06:05:54.431Z,0
2018-01-11T06:07:04.492Z,0
2018-01-11T06:08:14.536Z,0
2018-01-11T06:09:24.331Z,0
2018-01-11T06:10:34.398Z,0
2018-01-11T06:11:44.457Z,0
2018-01-11T06:12:54.530Z,0
2018-01-11T06:14:04.599Z,4
2018-01-11T06:15:14.658Z,4
2018-01-11T06:16:24.718Z,0
2018-01-11T06:17:34.775Z,4
2018-01-11T06:18:44.569Z,4
2018-01-11T06:19:54.670Z,0
2018-01-11T06:21:04.722Z,4
2018-01-11T06:22:14.770Z,8
2018-01-11T06:23:24.625Z,8
2018-01-11T06:24:34.473Z,8
2018-01-11T06:25:44.532Z,8
2018-01-11T06:26:54.592Z,8
2018-01-11T06:28:04.644Z,12
2018-01-11T06:29:14.765Z,12
2018-01-11T06:30:24.860Z,16
2018-01-11T06:31:34.644Z,20
2018-01-11T06:32:44.680Z,24
2018-01-11T06:33:54.761Z,24
2018-01-11T06:35:04.563Z,28
2018-01-11T06:36:14.362Z,32
2018-01-11T06:37:24.156Z,36
2018-01-11T06:38:33.956Z,36
2018-01-11T06:39:43.780Z,44
2018-01-11T06:40:53.567Z,44
2018-01-11T06:42:03.632Z,48
2018-01-11T06:43:13.687Z,56
2018-01-11T06:44:23.746Z,56
2018-01-11T06:45:33.800Z,68
2018-01-11T06:46:43.907Z,72
2018-01-11T06:47:53.712Z,80
2018-01-11T06:49:03.242Z,84
2018-01-11T06:50:13.304Z,92
2018-01-11T06:51:23.385Z,104
2018-01-11T06:52:33.437Z,120
2018-01-11T06:53:43.226Z,144
2018-01-11T06:54:53.010Z,184
2018-01-11T06:56:03.074Z,228
2018-01-11T06:57:13.146Z,264
2018-01-11T06:58:23.225Z,296
2018-01-11T06:59:33.035Z,336
2018-01-11T07:00:42.865Z,384
2018-01-11T07:01:52.927Z,436
2018-01-11T07:03:02.731Z,480
2018-01-11T07:04:12.551Z,516
2018-01-11T07:05:22.114Z,560
2018-01-11T07:06:32.173Z,600
2018-01-11T07:07:42.232Z,632
2018-01-11T07:08:52.303Z,660
2018-01-11T07:10:02.106Z,700
2018-01-11T07:11:12.182Z,736
2018-01-11T07:12:22.247Z,776
2018-01-11T07:13:32.402Z,808
2018-01-11T07:14:42.201Z,844
2018-01-11T07:15:52.270Z,856
2018-01-11T07:17:02.360Z,840
2018-01-11T07:18:12.134Z,876
2018-01-11T07:19:22.224Z,956
2018-01-11T07:20:32.291Z,1012
2018-01-11T07:21:42.422Z,1060
2018-01-11T07:22:52.211Z,1096
2018-01-11T07:24:01.991Z,1148
2018-01-11T07:25:12.046Z,1204
2018-01-11T07:26:22.111Z,1248
2018-01-11T07:27:32.156Z,1296
2018-01-11T07:28:42.284Z,1344
2018-01-11T07:29:52.385Z,1388
2018-01-11T07:31:02.470Z,1440
2018-01-11T07:32:12.526Z,1484
2018-01-11T07:33:22.598Z,1520
2018-01-11T07:34:32.708Z,1560
2018-01-11T07:35:42.507Z,1612
2018-01-11T07:36:52.288Z,1628
2018-01-11T07:38:02.070Z,1600
2018-01-11T07:39:12.111Z,1700
2018-01-11T07:40:22.176Z,1720
2018-01-11T07:41:32.264Z,1816
2018-01-11T07:42:41.781Z,1852
2018-01-11T07:43:51.848Z,1876
2018-01-11T07:45:01.909Z,1660
2018-01-11T07:46:12.064Z,1648
2018-01-11T07:47:21.864Z,1748
2018-01-11T07:48:31.669Z,1584
2018-01-11T07:49:41.765Z,1484
2018-01-11T07:50:51.548Z,1484
2018-01-11T07:52:01.348Z,1524
2018-01-11T07:53:11.401Z,1576
2018-01-11T07:54:21.453Z,1632
2018-01-11T07:55:31.551Z,1736
2018-01-11T07:56:41.670Z,2192
2018-01-11T07:57:51.709Z,2584
2018-01-11T07:59:01.758Z,2664
2018-01-11T08:00:11.830Z,2672
2018-01-11T08:01:21.616Z,2632
2018-01-11T08:02:31.680Z,2588
2018-01-11T08:03:41.489Z,2628
2018-01-11T08:04:51.264Z,2644
2018-01-11T08:06:01.330Z,2668
2018-01-11T08:07:11.428Z,2668
2018-01-11T08:08:21.509Z,2580
2018-01-11T08:09:31.550Z,2516
2018-01-11T08:10:41.604Z,2632
2018-01-11T08:11:51.665Z,2704
2018-01-11T08:13:01.720Z,2712
2018-01-11T08:14:11.767Z,2836
2018-01-11T08:15:21.552Z,2864
2018-01-11T08:16:31.337Z,2868
2018-01-11T08:17:41.379Z,3048
2018-01-11T08:18:51.170Z,3076
2018-01-11T08:20:01.221Z,2908
2018-01-11T08:21:11.010Z,3080
2018-01-11T08:22:20.577Z,3364
2018-01-11T08:23:30.367Z,3516
2018-01-11T08:24:40.974Z,3488
2018-01-11T08:25:50.771Z,3496
2018-01-11T08:27:00.841Z,3580
2018-01-11T08:28:10.682Z,3596
2018-01-11T08:29:20.741Z,3692
2018-01-11T08:30:30.820Z,3732
2018-01-11T08:31:40.874Z,3680
2018-01-11T08:32:50.940Z,3716
2018-01-11T08:34:01.026Z,3748
2018-01-11T08:35:11.100Z,3704
2018-01-11T08:36:21.146Z,3700
2018-01-11T08:37:32.303Z,3740
2018-01-11T08:38:42.355Z,3828
2018-01-11T08:39:52.415Z,3736
2018-01-11T08:41:02.473Z,3584
2018-01-11T08:42:12.524Z,3096
2018-01-11T08:43:22.320Z,3148
2018-01-11T08:44:32.375Z,3160
2018-01-11T08:45:42.488Z,4304
2018-01-11T08:46:52.533Z,4296
2018-01-11T08:48:02.324Z,4400
2018-01-11T08:49:12.411Z,4404
2018-01-11T08:50:21.945Z,4288
2018-01-11T08:51:31.747Z,4240
2018-01-11T08:52:41.282Z,4196
2018-01-11T08:53:51.074Z,4436
2018-01-11T08:55:00.866Z,4520
2018-01-11T08:56:10.939Z,4508
2018-01-11T08:57:21.078Z,4636
2018-01-11T08:58:31.160Z,4336
2018-01-11T08:59:41.223Z,4096
2018-01-11T09:00:51.297Z,3972
2018-01-11T09:02:01.350Z,4384
2018-01-11T09:03:11.289Z,4492
2018-01-11T09:04:21.329Z,4704
2018-01-11T09:05:31.383Z,4668
2018-01-11T09:06:41.467Z,4648
2018-01-11T09:07:51.319Z,4624
2018-01-11T09:09:01.469Z,4528
2018-01-11T09:10:11.538Z,4516
2018-01-11T09:11:21.625Z,4516
2018-01-11T09:12:31.709Z,4576
2018-01-11T09:13:41.781Z,4528
2018-01-11T09:14:51.045Z,4500
2018-01-11T09:16:01.124Z,4388
2018-01-11T09:17:10.966Z,4404
2018-01-11T09:18:21.035Z,4500
2018-01-11T09:19:31.100Z,4724
2018-01-11T09:20:40.915Z,4764
2018-01-11T09:21:50.991Z,4740
2018-01-11T09:23:00.812Z,4844
2018-01-11T09:24:10.606Z,4864
2018-01-11T09:25:20.410Z,4976
2018-01-11T09:26:30.478Z,4776
2018-01-11T09:27:40.302Z,3892
2018-01-11T09:28:50.448Z,4060
2018-01-11T09:30:00.266Z,5060
2018-01-11T09:31:10.355Z,4036
2018-01-11T09:32:20.422Z,3708
2018-01-11T09:33:30.550Z,3760
2018-01-11T09:34:40.405Z,4636
2018-01-11T09:35:51.497Z,4776
2018-01-11T09:37:01.569Z,4252
2018-01-11T09:38:12.489Z,4552
2018-01-11T09:39:22.559Z,5540
2018-01-11T09:40:32.665Z,4324
2018-01-11T09:41:44.628Z,5608
2018-01-11T09:42:54.411Z,5540
2018-01-11T09:44:04.481Z,5124
2018-01-11T09:45:14.674Z,4488
2018-01-11T09:46:24.773Z,4292
2018-01-11T09:47:34.845Z,4052
2018-01-11T09:48:44.667Z,3880
2018-01-11T09:49:54.471Z,5696
2018-01-11T09:51:04.287Z,4784
2018-01-11T09:52:14.356Z,4044
2018-01-11T09:53:24.431Z,4292
2018-01-11T09:54:34.508Z,4696
2018-01-11T09:55:44.866Z,5292
2018-01-11T09:56:55.292Z,5636
2018-01-11T09:58:07.895Z,6136
2018-01-11T09:59:17.721Z,6028
2018-01-11T10:00:27.788Z,5736
2018-01-11T10:01:37.875Z,5260
2018-01-11T10:02:47.941Z,4668
2018-01-11T10:03:58.025Z,4856
2018-01-11T10:05:08.135Z,5236
2018-01-11T10:06:17.963Z,4708
2018-01-11T10:07:27.783Z,5388
2018-01-11T10:08:37.880Z,5712
2018-01-11T10:09:47.970Z,5688
2018-01-11T10:10:58.102Z,4696
2018-01-11T10:12:09.010Z,4284
2018-01-11T10:13:18.842Z,3800
2018-01-11T10:14:28.673Z,3984
2018-01-11T10:15:38.856Z,3888
2018-01-11T10:16:48.927Z,4308
2018-01-11T10:17:58.718Z,4760
2018-01-11T10:19:08.819Z,3808
2018-01-11T10:20:18.620Z,3812
2018-01-11T10:21:28.678Z,3872
2018-01-11T10:22:38.767Z,4092
2018-01-11T10:23:48.597Z,3620
2018-01-11T10:24:58.666Z,3560
2018-01-11T10:26:08.498Z,3544
2018-01-11T10:27:18.565Z,3412
2018-01-11T10:28:28.383Z,3416
2018-01-11T10:29:38.247Z,3376
2018-01-11T10:30:48.351Z,3296
2018-01-11T10:31:58.438Z,3240
2018-01-11T10:33:08.598Z,3244
2018-01-11T10:34:18.751Z,3252
2018-01-11T10:35:28.572Z,3272
2018-01-11T10:36:38.686Z,3320
2018-01-11T10:37:48.511Z,3200
2018-01-11T10:38:58.329Z,3064
2018-01-11T10:40:08.439Z,2940
2018-01-11T10:41:18.246Z,2812
2018-01-11T10:42:28.320Z,2716
2018-01-11T10:43:38.128Z,2636
2018-01-11T10:44:48.203Z,2592
2018-01-11T10:45:58.046Z,2580
2018-01-11T10:47:08.160Z,2568
2018-01-11T10:48:18.316Z,2592
2018-01-11T10:49:28.416Z,2632
2018-01-11T10:50:38.500Z,2692
2018-01-11T10:51:48.824Z,2716
2018-01-11T10:52:58.635Z,2736
2018-01-11T10:54:08.723Z,2784
2018-01-11T10:55:18.555Z,2844
2018-01-11T10:56:28.652Z,2884
2018-01-11T10:57:38.729Z,2892
2018-01-11T10:58:48.283Z,2904
2018-01-11T10:59:57.901Z,2940
2018-01-11T11:01:07.869Z,2960
2018-01-11T11:02:17.446Z,2992
2018-01-11T11:03:27.277Z,3020
2018-01-11T11:04:37.356Z,3056
2018-01-11T11:05:47.179Z,3076
2018-01-11T11:06:57.256Z,3064
2018-01-11T11:08:07.447Z,3028
2018-01-11T11:09:17.243Z,3004
2018-01-11T11:10:27.551Z,3004
2018-01-11T11:11:37.693Z,3008
2018-01-11T11:12:47.496Z,3016
2018-01-11T11:13:57.564Z,3020
2018-01-11T11:15:07.375Z,3028
2018-01-11T11:16:18.575Z,3052
2018-01-11T11:17:28.688Z,3092
2018-01-11T11:18:38.755Z,3124
2018-01-11T11:19:48.834Z,3168
2018-01-11T11:20:58.909Z,3204
2018-01-11T11:22:09.029Z,3224
2018-01-11T11:23:19.164Z,3236
2018-01-11T11:24:28.976Z,3228
2018-01-11T11:25:39.055Z,3192
2018-01-11T11:26:49.121Z,3152
2018-01-11T11:27:59.196Z,3116
2018-01-11T11:29:09.367Z,3084
2018-01-11T11:30:19.416Z,3072
2018-01-11T11:31:29.536Z,3088
2018-01-11T11:32:39.608Z,3124
2018-01-11T11:33:49.421Z,3056
2018-01-11T11:34:59.229Z,2944
2018-01-11T11:36:09.730Z,2760
2018-01-11T11:37:20.668Z,2564
2018-01-11T11:38:30.750Z,2380
2018-01-11T11:39:40.562Z,2204
2018-01-11T11:40:50.207Z,2168
2018-01-11T11:41:59.490Z,2224
2018-01-11T11:43:09.563Z,2300
2018-01-11T11:44:19.621Z,2224
2018-01-11T11:45:29.675Z,2004
2018-01-11T11:46:39.596Z,1788
2018-01-11T11:47:49.692Z,1656
2018-01-11T11:48:59.780Z,1604
2018-01-11T11:50:09.849Z,1580
2018-01-11T11:51:20.875Z,1500
2018-01-11T11:52:31.744Z,1528
2018-01-11T11:53:41.563Z,1660
2018-01-11T11:54:51.384Z,1768
2018-01-11T11:56:01.193Z,1664
2018-01-11T11:57:11.292Z,1516
2018-01-11T11:58:21.422Z,1316
2018-01-11T11:59:31.498Z,1244
2018-01-11T12:00:41.591Z,1324
2018-01-11T12:01:51.667Z,1344
2018-01-11T12:03:01.741Z,1320
2018-01-11T12:04:11.830Z,1308
2018-01-11T12:05:21.900Z,1300
2018-01-11T12:06:32.268Z,1260
2018-01-11T12:07:42.363Z,1216
2018-01-11T12:08:52.446Z,1172
2018-01-11T12:10:02.545Z,1136
2018-01-11T12:11:12.625Z,1124
2018-01-11T12:12:22.174Z,1124
2018-01-11T12:13:32.256Z,1128
2018-01-11T12:14:42.354Z,1120
2018-01-11T12:15:51.930Z,1092
2018-01-11T12:17:02.009Z,1048
2018-01-11T12:18:12.109Z,976
2018-01-11T12:19:21.935Z,924
2018-01-11T12:20:32.055Z,864
2018-01-11T12:21:41.869Z,828
2018-01-11T12:22:51.678Z,812
2018-01-11T12:24:00.955Z,828
2018-01-11T12:25:11.024Z,808
2018-01-11T12:26:21.185Z,788
2018-01-11T12:27:31.239Z,804
2018-01-11T12:28:41.050Z,876
2018-01-11T12:29:51.252Z,976
2018-01-11T12:31:01.382Z,1024
2018-01-11T12:32:11.506Z,1060
2018-01-11T12:33:21.063Z,1120
2018-01-11T12:34:31.132Z,1244
2018-01-11T12:35:40.933Z,1388
2018-01-11T12:36:50.800Z,1528
2018-01-11T12:38:00.883Z,1596
2018-01-11T12:39:10.959Z,1608
2018-01-11T12:40:20.757Z,1588
2018-01-11T12:41:30.847Z,1512
2018-01-11T12:42:40.955Z,1424
2018-01-11T12:43:51.040Z,1460
2018-01-11T12:45:01.090Z,1512
2018-01-11T12:46:10.919Z,1472
2018-01-11T12:47:20.748Z,1444
2018-01-11T12:48:30.284Z,1416
2018-01-11T12:49:40.084Z,1432
2018-01-11T12:50:50.154Z,1396
2018-01-11T12:52:00.240Z,1336
2018-01-11T12:53:10.065Z,1308
2018-01-11T12:54:20.153Z,1284
2018-01-11T12:55:30.225Z,1308
2018-01-11T12:56:40.077Z,1360
2018-01-11T12:57:49.907Z,1384
2018-01-11T12:58:59.982Z,1408
2018-01-11T13:00:09.810Z,1496
2018-01-11T13:01:20.585Z,1608
2018-01-11T13:02:30.671Z,1700
2018-01-11T13:03:40.490Z,1748
2018-01-11T13:04:50.296Z,1780
2018-01-11T13:06:00.362Z,1796
2018-01-11T13:07:11.525Z,1804
2018-01-11T13:08:21.611Z,1796
2018-01-11T13:09:32.354Z,1780
2018-01-11T13:10:42.427Z,1748
2018-01-11T13:11:52.608Z,1704
2018-01-11T13:13:02.478Z,1636
2018-01-11T13:14:12.561Z,1548
2018-01-11T13:15:22.642Z,1512
2018-01-11T13:16:33.926Z,1484
2018-01-11T13:17:43.747Z,1444
2018-01-11T13:18:53.565Z,1420
2018-01-11T13:20:03.728Z,1360
2018-01-11T13:21:13.537Z,1292
2018-01-11T13:22:23.610Z,1260
2018-01-11T13:23:33.442Z,1232
2018-01-11T13:24:43.799Z,1164
2018-01-11T13:25:55.133Z,1104
2018-01-11T13:27:05.200Z,1060
2018-01-11T13:28:15.269Z,1004
2018-01-11T13:29:25.459Z,960
2018-01-11T13:30:35.536Z,924
2018-01-11T13:31:45.650Z,892
2018-01-11T13:32:55.769Z,856
2018-01-11T13:34:05.865Z,836
2018-01-11T13:35:15.944Z,836
2018-01-11T13:36:27.003Z,840
2018-01-11T13:37:39.444Z,844
2018-01-11T13:38:49.673Z,852
2018-01-11T13:39:59.745Z,860
2018-01-11T13:41:09.586Z,880
2018-01-11T13:42:20.301Z,900
2018-01-11T13:43:30.406Z,904
2018-01-11T13:44:40.520Z,884
2018-01-11T13:45:50.605Z,844
2018-01-11T13:47:00.683Z,820
2018-01-11T13:48:10.767Z,808
2018-01-11T13:49:20.578Z,816
2018-01-11T13:50:30.672Z,828
2018-01-11T13:51:40.764Z,844
2018-01-11T13:52:50.326Z,856
2018-01-11T13:54:00.648Z,864
2018-01-11T13:55:11.778Z,856
2018-01-11T13:56:21.638Z,840
2018-01-11T13:57:31.535Z,824
2018-01-11T13:58:43.370Z,812
2018-01-11T13:59:54.452Z,796
2018-01-11T14:01:04.532Z,784
2018-01-11T14:02:14.613Z,764
2018-01-11T14:03:24.682Z,760
2018-01-11T14:04:35.968Z,736
2018-01-11T14:05:46.035Z,724
2018-01-11T14:06:56.097Z,708
2018-01-11T14:08:06.242Z,692
2018-01-11T14:09:17.201Z,684
2018-01-11T14:10:27.292Z,672
2018-01-11T14:11:37.096Z,660
2018-01-11T14:12:47.272Z,640
2018-01-11T14:13:57.134Z,616
2018-01-11T14:15:07.229Z,588
2018-01-11T14:16:17.332Z,560
2018-01-11T14:17:27.467Z,540
2018-01-11T14:18:37.540Z,524
2018-01-11T14:19:47.690Z,504
2018-01-11T14:20:57.983Z,484
2018-01-11T14:22:08.069Z,460
2018-01-11T14:23:18.148Z,436
2018-01-11T14:24:27.979Z,416
2018-01-11T14:25:38.089Z,392
2018-01-11T14:26:47.926Z,360
2018-01-11T14:27:58.044Z,332
2018-01-11T14:29:08.127Z,308
2018-01-11T14:30:17.666Z,296
2018-01-11T14:31:28.857Z,284
2018-01-11T14:32:38.924Z,272
2018-01-11T14:33:49.017Z,256
2018-01-11T14:34:59.498Z,244
2018-01-11T14:36:09.575Z,228
2018-01-11T14:37:19.420Z,220
2018-01-11T14:38:29.523Z,216
2018-01-11T14:39:40.648Z,200
2018-01-11T14:40:50.718Z,180
2018-01-11T14:42:00.553Z,160
2018-01-11T14:43:10.649Z,148
2018-01-11T14:44:20.769Z,132
2018-01-11T14:45:30.860Z,124
2018-01-11T14:46:43.588Z,108
2018-01-11T14:47:54.062Z,108
2018-01-11T14:49:04.152Z,100
2018-01-11T14:50:14.830Z,96
2018-01-11T14:51:24.669Z,92
2018-01-11T14:52:35.730Z,88
2018-01-11T15:02:17.062Z,56
2018-01-11T15:03:27.163Z,52
2018-01-11T15:04:37.265Z,52
2018-01-11T15:05:47.327Z,52
2018-01-11T15:06:57.515Z,44
2018-01-11T15:08:09.338Z,40
2018-01-11T15:09:19.430Z,36
2018-01-11T15:10:29.504Z,32
2018-01-11T15:11:39.063Z,32
2018-01-11T15:12:49.198Z,20
2018-01-11T15:13:59.279Z,20
2018-01-11T15:15:09.358Z,20
2018-01-11T15:16:19.172Z,20
2018-01-11T15:17:30.304Z,16
2018-01-11T15:18:40.405Z,16
2018-01-11T15:19:51.177Z,16
2018-01-11T15:21:01.273Z,16
2018-01-11T15:22:11.429Z,12
2018-01-11T15:23:21.233Z,16
2018-01-11T15:24:31.444Z,16
2018-01-11T15:25:41.524Z,12
2018-01-11T15:26:51.578Z,12
2018-01-11T15:28:01.647Z,12
2018-01-11T15:29:11.436Z,12
2018-01-11T15:30:22.208Z,12
2018-01-11T15:31:31.484Z,12
2018-01-11T15:32:41.568Z,8
2018-01-11T15:33:51.678Z,8
2018-01-11T15:35:01.548Z,4
2018-01-11T15:36:11.646Z,4
2018-01-11T15:37:21.485Z,4
2018-01-11T15:38:31.588Z,4
2018-01-11T15:39:41.686Z,4
2018-01-11T15:40:52.355Z,4
2018-01-11T15:42:02.558Z,4
2018-01-11T15:43:12.354Z,0
2018-01-11T15:44:22.178Z,0
2018-01-11T15:45:32.227Z,4
2018-01-11T15:46:42.303Z,4
2018-01-11T15:47:52.424Z,0
2018-01-11T15:49:02.589Z,0
2018-01-11T15:50:12.695Z,0
2018-01-11T15:51:22.768Z,0
2018-01-11T15:52:32.867Z,0
2018-01-11T15:53:42.993Z,0
2018-01-11T15:54:53.089Z,0
2018-01-11T15:56:03.160Z,0
2018-01-11T15:57:13.279Z,0
2018-01-11T15:58:23.354Z,0
2018-01-11T15:59:33.431Z,0
2018-01-11T16:00:43.499Z,0
2018-01-11T16:01:53.406Z,0
2018-01-11T16:03:04.475Z,0
2018-01-11T16:04:14.275Z,0
2018-01-11T16:05:24.452Z,0
2018-01-11T16:06:34.311Z,0
2018-01-11T16:07:44.142Z,0
2018-01-11T16:08:54.208Z,0
2018-01-11T16:10:04.277Z,0
2018-01-11T16:11:15.753Z,0
2018-01-11T16:12:29.852Z,0
2018-01-11T16:13:40.424Z,0
2018-01-11T16:14:50.516Z,0
2018-01-11T16:16:00.837Z,0
2018-01-11T16:17:10.965Z,0
2018-01-11T16:18:21.067Z,0
2018-01-11T16:19:31.170Z,0
2018-01-11T16:20:41.253Z,0
2018-01-11T16:21:51.070Z,0
2018-01-11T16:23:01.985Z,0
2018-01-11T16:24:12.125Z,0
2018-01-11T16:25:22.212Z,0
2018-01-11T16:26:32.314Z,0
2018-01-11T16:27:42.464Z,0
2018-01-11T16:28:52.278Z,0
2018-01-11T16:30:02.365Z,0
2018-01-11T16:31:12.459Z,0
2018-01-11T16:32:22.571Z,0
2018-01-11T16:33:32.666Z,0
2018-01-11T16:34:42.738Z,0
2018-01-11T16:35:53.361Z,0
2018-01-11T16:37:03.221Z,0
2018-01-11T16:38:13.320Z,0
2018-01-11T16:39:23.151Z,0
2018-01-11T16:40:33.230Z,0
2018-01-11T16:41:43.307Z,0
2018-01-11T16:42:53.373Z,0
2018-01-11T16:44:03.526Z,0
2018-01-11T16:45:13.909Z,0
2018-01-11T16:46:24.045Z,0
2018-01-11T16:47:34.138Z,0
2018-01-11T16:48:43.964Z,0
2018-01-11T16:49:54.040Z,0
2018-01-11T16:51:04.122Z,0
2018-01-11T16:52:14.222Z,0
2018-01-11T16:53:24.053Z,0
2018-01-11T16:54:34.340Z,0
2018-01-11T16:55:44.155Z,0
2018-01-11T16:56:54.296Z,0
2018-01-11T16:58:04.387Z,0
2018-01-11T16:59:14.492Z,0
2018-01-11T17:00:24.594Z,0
2018-01-11T17:01:34.678Z,0
2018-01-11T17:02:44.489Z,0
2018-01-11T17:03:54.565Z,0